sensor_id;sensor_type;location;lat;lon;timestamp;P1;durP1;ratioP1;P2;durP2;ratioP2
40501;SDS011;29631;49.168;9.848;2023-04-03T00:00:56;1.48;;;1.48;;
40501;SDS011;29631;49.168;9.848;2023-04-03T00:03:22;1.83;;;1.73;;
40501;SDS011;29631;49.168;9.848;2023-04-03T00:05:48;1.90;;;1.50;;
40501;SDS011;29631;49.168;9.848;2023-04-03T00:08:14;1.45;;;1.35;;
40501;SDS011;29631;49.168;9.848;2023-04-03T00:10:40;1.80;;;1.70;;
40501;SDS011;29631;49.168;9.848;2023-04-03T00:13:06;2.22;;;1.58;;
40501;SDS011;29631;49.168;9.848;2023-04-03T00:15:33;2.22;;;1.42;;
40501;SDS011;29631;49.168;9.848;2023-04-03T00:18:00;1.40;;;1.30;;
40501;SDS011;29631;49.168;9.848;2023-04-03T00:20:26;2.95;;;1.67;;
40501;SDS011;29631;49.168;9.848;2023-04-03T00:22:52;1.55;;;1.45;;
40501;SDS011;29631;49.168;9.848;2023-04-03T00:25:19;1.60;;;1.50;;
40501;SDS011;29631;49.168;9.848;2023-04-03T00:27:45;1.48;;;1.38;;
40501;SDS011;29631;49.168;9.848;2023-04-03T00:30:11;1.63;;;1.50;;
40501;SDS011;29631;49.168;9.848;2023-04-03T00:32:40;1.58;;;1.48;;
40501;SDS011;29631;49.168;9.848;2023-04-03T00:35:06;2.08;;;1.50;;
40501;SDS011;29631;49.168;9.848;2023-04-03T00:37:33;1.50;;;1.40;;
40501;SDS011;29631;49.168;9.848;2023-04-03T00:39:59;1.60;;;1.50;;
40501;SDS011;29631;49.168;9.848;2023-04-03T00:42:25;1.88;;;1.58;;
40501;SDS011;29631;49.168;9.848;2023-04-03T00:47:22;1.27;;;1.27;;
40501;SDS011;29631;49.168;9.848;2023-04-03T00:49:49;1.70;;;1.60;;
40501;SDS011;29631;49.168;9.848;2023-04-03T00:52:17;1.30;;;1.30;;
40501;SDS011;29631;49.168;9.848;2023-04-03T00:54:48;1.25;;;1.25;;
40501;SDS011;29631;49.168;9.848;2023-04-03T00:57:17;1.25;;;1.25;;
40501;SDS011;29631;49.168;9.848;2023-04-03T00:59:44;1.60;;;1.50;;
40501;SDS011;29631;49.168;9.848;2023-04-03T01:02:16;1.40;;;1.30;;
40501;SDS011;29631;49.168;9.848;2023-04-03T01:04:42;1.60;;;1.50;;
40501;SDS011;29631;49.168;9.848;2023-04-03T01:07:10;1.70;;;1.60;;
40501;SDS011;29631;49.168;9.848;2023-04-03T01:09:48;1.20;;;1.20;;
40501;SDS011;29631;49.168;9.848;2023-04-03T01:12:20;1.63;;;1.52;;
40501;SDS011;29631;49.168;9.848;2023-04-03T01:14:54;1.13;;;1.13;;
40501;SDS011;29631;49.168;9.848;2023-04-03T01:22:56;1.75;;;1.40;;
40501;SDS011;29631;49.168;9.848;2023-04-03T01:25:39;1.58;;;1.17;;
40501;SDS011;29631;49.168;9.848;2023-04-03T01:28:15;1.45;;;1.45;;
40501;SDS011;29631;49.168;9.848;2023-04-03T01:30:50;1.27;;;1.27;;
40501;SDS011;29631;49.168;9.848;2023-04-03T01:33:34;1.30;;;1.30;;
40501;SDS011;29631;49.168;9.848;2023-04-03T01:36:00;1.40;;;1.30;;
40501;SDS011;29631;49.168;9.848;2023-04-03T01:38:26;1.50;;;1.40;;
40501;SDS011;29631;49.168;9.848;2023-04-03T01:40:52;1.38;;;1.38;;
40501;SDS011;29631;49.168;9.848;2023-04-03T01:43:18;1.38;;;1.30;;
40501;SDS011;29631;49.168;9.848;2023-04-03T01:45:44;1.42;;;1.35;;
40501;SDS011;29631;49.168;9.848;2023-04-03T01:48:11;1.48;;;1.38;;
40501;SDS011;29631;49.168;9.848;2023-04-03T01:50:38;1.50;;;1.40;;
40501;SDS011;29631;49.168;9.848;2023-04-03T01:53:04;2.15;;;1.50;;
40501;SDS011;29631;49.168;9.848;2023-04-03T01:55:30;1.40;;;1.30;;
40501;SDS011;29631;49.168;9.848;2023-04-03T01:57:55;1.42;;;1.33;;
40501;SDS011;29631;49.168;9.848;2023-04-03T02:00:21;1.45;;;1.40;;
40501;SDS011;29631;49.168;9.848;2023-04-03T02:02:47;1.80;;;1.48;;
40501;SDS011;29631;49.168;9.848;2023-04-03T02:05:12;1.38;;;1.30;;
40501;SDS011;29631;49.168;9.848;2023-04-03T02:07:38;1.40;;;1.30;;
40501;SDS011;29631;49.168;9.848;2023-04-03T02:10:04;1.30;;;1.20;;
40501;SDS011;29631;49.168;9.848;2023-04-03T02:12:30;1.10;;;1.10;;
40501;SDS011;29631;49.168;9.848;2023-04-03T02:14:56;1.23;;;1.23;;
40501;SDS011;29631;49.168;9.848;2023-04-03T02:17:22;1.23;;;1.23;;
40501;SDS011;29631;49.168;9.848;2023-04-03T02:19:47;1.55;;;1.38;;
40501;SDS011;29631;49.168;9.848;2023-04-03T02:22:13;0.95;;;0.95;;
40501;SDS011;29631;49.168;9.848;2023-04-03T02:24:39;1.63;;;1.52;;
40501;SDS011;29631;49.168;9.848;2023-04-03T02:27:05;1.50;;;1.40;;
40501;SDS011;29631;49.168;9.848;2023-04-03T02:29:31;1.95;;;1.55;;
40501;SDS011;29631;49.168;9.848;2023-04-03T02:31:56;1.95;;;1.30;;
40501;SDS011;29631;49.168;9.848;2023-04-03T02:34:22;1.70;;;1.60;;
40501;SDS011;29631;49.168;9.848;2023-04-03T02:36:48;1.50;;;1.40;;
40501;SDS011;29631;49.168;9.848;2023-04-03T02:39:14;1.60;;;1.50;;
40501;SDS011;29631;49.168;9.848;2023-04-03T02:41:40;1.15;;;1.15;;
40501;SDS011;29631;49.168;9.848;2023-04-03T02:44:06;1.30;;;1.30;;
40501;SDS011;29631;49.168;9.848;2023-04-03T02:46:35;1.33;;;1.25;;
40501;SDS011;29631;49.168;9.848;2023-04-03T02:49:00;1.40;;;1.30;;
40501;SDS011;29631;49.168;9.848;2023-04-03T02:51:26;1.60;;;1.50;;
40501;SDS011;29631;49.168;9.848;2023-04-03T02:53:52;1.23;;;1.23;;
40501;SDS011;29631;49.168;9.848;2023-04-03T02:56:18;1.50;;;1.40;;
40501;SDS011;29631;49.168;9.848;2023-04-03T02:58:45;1.23;;;1.23;;
40501;SDS011;29631;49.168;9.848;2023-04-03T03:01:10;1.63;;;1.60;;
40501;SDS011;29631;49.168;9.848;2023-04-03T03:03:36;1.60;;;1.50;;
40501;SDS011;29631;49.168;9.848;2023-04-03T03:06:10;1.20;;;1.20;;
40501;SDS011;29631;49.168;9.848;2023-04-03T03:08:38;1.38;;;1.35;;
40501;SDS011;29631;49.168;9.848;2023-04-03T03:11:05;1.40;;;1.40;;
40501;SDS011;29631;49.168;9.848;2023-04-03T03:13:31;1.40;;;1.40;;
40501;SDS011;29631;49.168;9.848;2023-04-03T03:15:58;1.60;;;1.50;;
40501;SDS011;29631;49.168;9.848;2023-04-03T03:18:24;1.77;;;1.67;;
40501;SDS011;29631;49.168;9.848;2023-04-03T03:20:53;1.98;;;1.80;;
40501;SDS011;29631;49.168;9.848;2023-04-03T03:23:21;2.80;;;1.83;;
40501;SDS011;29631;49.168;9.848;2023-04-03T03:25:49;2.50;;;2.30;;
40501;SDS011;29631;49.168;9.848;2023-04-03T03:28:25;2.30;;;2.10;;
40501;SDS011;29631;49.168;9.848;2023-04-03T03:30:51;2.00;;;1.80;;
40501;SDS011;29631;49.168;9.848;2023-04-03T03:33:17;2.15;;;1.67;;
40501;SDS011;29631;49.168;9.848;2023-04-03T03:35:43;2.20;;;1.60;;
40501;SDS011;29631;49.168;9.848;2023-04-03T03:38:09;1.80;;;1.70;;
40501;SDS011;29631;49.168;9.848;2023-04-03T03:40:35;1.70;;;1.60;;
40501;SDS011;29631;49.168;9.848;2023-04-03T03:43:01;1.85;;;1.55;;
40501;SDS011;29631;49.168;9.848;2023-04-03T03:45:27;1.83;;;1.63;;
40501;SDS011;29631;49.168;9.848;2023-04-03T03:47:53;1.52;;;1.52;;
40501;SDS011;29631;49.168;9.848;2023-04-03T03:50:18;1.70;;;1.60;;
40501;SDS011;29631;49.168;9.848;2023-04-03T03:52:44;1.50;;;1.40;;
40501;SDS011;29631;49.168;9.848;2023-04-03T03:55:10;1.75;;;1.65;;
40501;SDS011;29631;49.168;9.848;2023-04-03T03:57:36;1.50;;;1.40;;
40501;SDS011;29631;49.168;9.848;2023-04-03T04:00:02;1.30;;;1.30;;
40501;SDS011;29631;49.168;9.848;2023-04-03T04:02:29;1.23;;;1.23;;
40501;SDS011;29631;49.168;9.848;2023-04-03T04:04:55;2.05;;;1.38;;
40501;SDS011;29631;49.168;9.848;2023-04-03T04:07:21;1.27;;;1.27;;
40501;SDS011;29631;49.168;9.848;2023-04-03T04:09:47;1.50;;;1.50;;
40501;SDS011;29631;49.168;9.848;2023-04-03T04:12:13;1.75;;;1.50;;
40501;SDS011;29631;49.168;9.848;2023-04-03T04:14:39;1.85;;;1.30;;
40501;SDS011;29631;49.168;9.848;2023-04-03T04:17:05;1.40;;;1.30;;
40501;SDS011;29631;49.168;9.848;2023-04-03T04:19:30;1.77;;;1.67;;
40501;SDS011;29631;49.168;9.848;2023-04-03T04:21:58;1.17;;;1.17;;
40501;SDS011;29631;49.168;9.848;2023-04-03T04:24:23;1.60;;;1.50;;
40501;SDS011;29631;49.168;9.848;2023-04-03T04:26:49;1.60;;;1.35;;
40501;SDS011;29631;49.168;9.848;2023-04-03T04:29:15;1.60;;;1.50;;
40501;SDS011;29631;49.168;9.848;2023-04-03T04:31:41;1.15;;;1.15;;
40501;SDS011;29631;49.168;9.848;2023-04-03T04:34:06;1.63;;;1.60;;
40501;SDS011;29631;49.168;9.848;2023-04-03T04:36:33;1.80;;;1.70;;
40501;SDS011;29631;49.168;9.848;2023-04-03T04:38:58;1.52;;;1.42;;
40501;SDS011;29631;49.168;9.848;2023-04-03T04:41:24;1.70;;;1.60;;
40501;SDS011;29631;49.168;9.848;2023-04-03T04:43:51;1.58;;;1.50;;
40501;SDS011;29631;49.168;9.848;2023-04-03T04:46:17;1.40;;;1.30;;
40501;SDS011;29631;49.168;9.848;2023-04-03T04:48:43;1.75;;;1.65;;
40501;SDS011;29631;49.168;9.848;2023-04-03T04:51:09;2.05;;;1.73;;
40501;SDS011;29631;49.168;9.848;2023-04-03T04:53:35;1.50;;;1.40;;
40501;SDS011;29631;49.168;9.848;2023-04-03T04:56:01;3.22;;;2.80;;
40501;SDS011;29631;49.168;9.848;2023-04-03T04:58:27;2.45;;;2.30;;
40501;SDS011;29631;49.168;9.848;2023-04-03T05:01:00;2.15;;;2.00;;
40501;SDS011;29631;49.168;9.848;2023-04-03T05:03:31;2.20;;;2.10;;
40501;SDS011;29631;49.168;9.848;2023-04-03T05:05:57;2.22;;;2.05;;
40501;SDS011;29631;49.168;9.848;2023-04-03T05:08:23;1.80;;;1.70;;
40501;SDS011;29631;49.168;9.848;2023-04-03T05:10:49;1.90;;;1.80;;
40501;SDS011;29631;49.168;9.848;2023-04-03T05:13:16;1.92;;;1.83;;
40501;SDS011;29631;49.168;9.848;2023-04-03T05:15:41;2.13;;;1.95;;
40501;SDS011;29631;49.168;9.848;2023-04-03T05:18:07;2.97;;;1.77;;
40501;SDS011;29631;49.168;9.848;2023-04-03T05:20:33;3.08;;;2.17;;
40501;SDS011;29631;49.168;9.848;2023-04-03T05:22:59;2.13;;;1.98;;
40501;SDS011;29631;49.168;9.848;2023-04-03T05:25:25;2.20;;;2.00;;
40501;SDS011;29631;49.168;9.848;2023-04-03T05:27:51;1.95;;;1.80;;
40501;SDS011;29631;49.168;9.848;2023-04-03T05:30:17;2.22;;;2.10;;
40501;SDS011;29631;49.168;9.848;2023-04-03T05:32:43;2.72;;;2.15;;
40501;SDS011;29631;49.168;9.848;2023-04-03T05:35:10;2.25;;;1.88;;
40501;SDS011;29631;49.168;9.848;2023-04-03T05:37:36;1.85;;;1.70;;
40501;SDS011;29631;49.168;9.848;2023-04-03T05:40:02;3.05;;;1.83;;
40501;SDS011;29631;49.168;9.848;2023-04-03T05:42:30;2.03;;;1.80;;
40501;SDS011;29631;49.168;9.848;2023-04-03T05:44:56;3.47;;;1.95;;
40501;SDS011;29631;49.168;9.848;2023-04-03T05:47:22;1.73;;;1.63;;
40501;SDS011;29631;49.168;9.848;2023-04-03T05:49:48;2.03;;;1.83;;
40501;SDS011;29631;49.168;9.848;2023-04-03T05:52:18;2.05;;;1.65;;
40501;SDS011;29631;49.168;9.848;2023-04-03T05:54:55;1.80;;;1.70;;
40501;SDS011;29631;49.168;9.848;2023-04-03T05:57:21;2.10;;;1.75;;
40501;SDS011;29631;49.168;9.848;2023-04-03T05:59:48;2.30;;;2.00;;
40501;SDS011;29631;49.168;9.848;2023-04-03T06:02:15;1.65;;;1.55;;
40501;SDS011;29631;49.168;9.848;2023-04-03T06:04:44;2.00;;;1.88;;
40501;SDS011;29631;49.168;9.848;2023-04-03T06:07:15;3.70;;;2.70;;
40501;SDS011;29631;49.168;9.848;2023-04-03T06:09:44;3.97;;;2.83;;
40501;SDS011;29631;49.168;9.848;2023-04-03T06:12:10;4.20;;;3.30;;
40501;SDS011;29631;49.168;9.848;2023-04-03T06:14:36;4.90;;;3.47;;
40501;SDS011;29631;49.168;9.848;2023-04-03T06:17:02;4.25;;;3.60;;
40501;SDS011;29631;49.168;9.848;2023-04-03T06:19:29;4.40;;;3.70;;
40501;SDS011;29631;49.168;9.848;2023-04-03T06:21:55;5.78;;;5.07;;
40501;SDS011;29631;49.168;9.848;2023-04-03T06:24:21;6.88;;;5.10;;
40501;SDS011;29631;49.168;9.848;2023-04-03T06:26:49;5.63;;;4.80;;
40501;SDS011;29631;49.168;9.848;2023-04-03T06:29:16;5.20;;;4.47;;
40501;SDS011;29631;49.168;9.848;2023-04-03T06:31:42;5.20;;;4.70;;
40501;SDS011;29631;49.168;9.848;2023-04-03T06:34:08;5.50;;;4.53;;
40501;SDS011;29631;49.168;9.848;2023-04-03T06:36:36;4.47;;;3.65;;
40501;SDS011;29631;49.168;9.848;2023-04-03T06:39:02;4.40;;;3.50;;
40501;SDS011;29631;49.168;9.848;2023-04-03T06:41:28;2.90;;;2.70;;
40501;SDS011;29631;49.168;9.848;2023-04-03T06:43:54;2.70;;;2.50;;
40501;SDS011;29631;49.168;9.848;2023-04-03T06:46:22;3.17;;;2.30;;
40501;SDS011;29631;49.168;9.848;2023-04-03T06:48:49;4.25;;;2.10;;
40501;SDS011;29631;49.168;9.848;2023-04-03T06:51:19;2.40;;;2.20;;
40501;SDS011;29631;49.168;9.848;2023-04-03T06:53:54;1.88;;;1.60;;
40501;SDS011;29631;49.168;9.848;2023-04-03T06:56:22;4.53;;;2.00;;
40501;SDS011;29631;49.168;9.848;2023-04-03T06:58:50;2.78;;;1.85;;
40501;SDS011;29631;49.168;9.848;2023-04-03T07:01:17;3.95;;;1.80;;
40501;SDS011;29631;49.168;9.848;2023-04-03T07:03:44;1.92;;;1.83;;
40501;SDS011;29631;49.168;9.848;2023-04-03T07:06:12;2.95;;;2.15;;
40501;SDS011;29631;49.168;9.848;2023-04-03T07:08:40;3.22;;;1.73;;
40501;SDS011;29631;49.168;9.848;2023-04-03T07:11:07;5.10;;;2.20;;
40501;SDS011;29631;49.168;9.848;2023-04-03T07:13:34;3.72;;;1.70;;
40501;SDS011;29631;49.168;9.848;2023-04-03T07:16:01;3.15;;;2.00;;
40501;SDS011;29631;49.168;9.848;2023-04-03T07:18:28;3.85;;;2.10;;
40501;SDS011;29631;49.168;9.848;2023-04-03T07:20:54;4.90;;;1.98;;
40501;SDS011;29631;49.168;9.848;2023-04-03T07:23:21;2.45;;;1.92;;
40501;SDS011;29631;49.168;9.848;2023-04-03T07:25:49;2.03;;;1.88;;
40501;SDS011;29631;49.168;9.848;2023-04-03T07:28:16;1.88;;;1.75;;
40501;SDS011;29631;49.168;9.848;2023-04-03T07:30:51;1.70;;;1.60;;
40501;SDS011;29631;49.168;9.848;2023-04-03T07:33:23;2.58;;;1.75;;
40501;SDS011;29631;49.168;9.848;2023-04-03T07:35:49;1.70;;;1.58;;
40501;SDS011;29631;49.168;9.848;2023-04-03T07:38:15;2.22;;;2.00;;
40501;SDS011;29631;49.168;9.848;2023-04-03T07:40:45;2.00;;;1.80;;
40501;SDS011;29631;49.168;9.848;2023-04-03T07:43:15;2.22;;;1.83;;
40501;SDS011;29631;49.168;9.848;2023-04-03T07:45:42;6.28;;;2.00;;
40501;SDS011;29631;49.168;9.848;2023-04-03T07:48:09;1.63;;;1.52;;
40501;SDS011;29631;49.168;9.848;2023-04-03T07:50:36;2.67;;;1.50;;
40501;SDS011;29631;49.168;9.848;2023-04-03T07:53:02;2.42;;;1.70;;
40501;SDS011;29631;49.168;9.848;2023-04-03T07:55:28;2.00;;;1.73;;
40501;SDS011;29631;49.168;9.848;2023-04-03T07:57:54;2.00;;;1.90;;
40501;SDS011;29631;49.168;9.848;2023-04-03T08:00:20;2.13;;;1.60;;
40501;SDS011;29631;49.168;9.848;2023-04-03T08:02:46;1.60;;;1.50;;
40501;SDS011;29631;49.168;9.848;2023-04-03T08:05:17;1.35;;;1.33;;
40501;SDS011;29631;49.168;9.848;2023-04-03T08:07:45;3.95;;;1.70;;
40501;SDS011;29631;49.168;9.848;2023-04-03T08:10:12;2.45;;;1.63;;
40501;SDS011;29631;49.168;9.848;2023-04-03T08:12:39;2.00;;;1.90;;
40501;SDS011;29631;49.168;9.848;2023-04-03T08:15:05;2.20;;;1.90;;
40501;SDS011;29631;49.168;9.848;2023-04-03T08:17:33;1.92;;;1.80;;
40501;SDS011;29631;49.168;9.848;2023-04-03T08:19:59;1.73;;;1.63;;
40501;SDS011;29631;49.168;9.848;2023-04-03T08:22:26;1.60;;;1.50;;
40501;SDS011;29631;49.168;9.848;2023-04-03T08:24:52;3.30;;;1.77;;
40501;SDS011;29631;49.168;9.848;2023-04-03T08:27:17;3.25;;;1.55;;
40501;SDS011;29631;49.168;9.848;2023-04-03T08:29:43;1.60;;;1.48;;
40501;SDS011;29631;49.168;9.848;2023-04-03T08:32:09;1.90;;;1.50;;
40501;SDS011;29631;49.168;9.848;2023-04-03T08:34:35;1.83;;;1.67;;
40501;SDS011;29631;49.168;9.848;2023-04-03T08:37:04;1.63;;;1.52;;
40501;SDS011;29631;49.168;9.848;2023-04-03T08:39:30;2.15;;;1.50;;
40501;SDS011;29631;49.168;9.848;2023-04-03T08:41:57;1.80;;;1.63;;
40501;SDS011;29631;49.168;9.848;2023-04-03T08:44:44;1.80;;;1.70;;
40501;SDS011;29631;49.168;9.848;2023-04-03T08:47:25;3.00;;;1.58;;
40501;SDS011;29631;49.168;9.848;2023-04-03T08:50:04;2.67;;;1.40;;
40501;SDS011;29631;49.168;9.848;2023-04-03T08:55:28;1.88;;;1.50;;
40501;SDS011;29631;49.168;9.848;2023-04-03T08:58:04;1.60;;;1.40;;
40501;SDS011;29631;49.168;9.848;2023-04-03T09:00:55;1.75;;;1.42;;
40501;SDS011;29631;49.168;9.848;2023-04-03T09:03:41;1.73;;;1.63;;
40501;SDS011;29631;49.168;9.848;2023-04-03T09:06:11;2.35;;;1.80;;
40501;SDS011;29631;49.168;9.848;2023-04-03T09:09:07;3.58;;;2.13;;
40501;SDS011;29631;49.168;9.848;2023-04-03T09:23:50;2.05;;;1.85;;
40501;SDS011;29631;49.168;9.848;2023-04-03T09:26:17;2.13;;;1.75;;
40501;SDS011;29631;49.168;9.848;2023-04-03T09:29:06;1.92;;;1.75;;
40501;SDS011;29631;49.168;9.848;2023-04-03T09:31:36;2.13;;;1.30;;
40501;SDS011;29631;49.168;9.848;2023-04-03T09:34:15;2.90;;;1.70;;
40501;SDS011;29631;49.168;9.848;2023-04-03T09:36:53;1.60;;;1.50;;
40501;SDS011;29631;49.168;9.848;2023-04-03T09:39:23;1.60;;;1.50;;
40501;SDS011;29631;49.168;9.848;2023-04-03T09:44:55;3.22;;;1.75;;
40501;SDS011;29631;49.168;9.848;2023-04-03T09:47:29;3.35;;;1.50;;
40501;SDS011;29631;49.168;9.848;2023-04-03T09:50:10;1.95;;;1.50;;
40501;SDS011;29631;49.168;9.848;2023-04-03T09:52:46;2.45;;;1.50;;
40501;SDS011;29631;49.168;9.848;2023-04-03T09:57:46;2.10;;;1.90;;
40501;SDS011;29631;49.168;9.848;2023-04-03T10:03:01;1.30;;;1.20;;
40501;SDS011;29631;49.168;9.848;2023-04-03T10:05:36;2.67;;;1.65;;
40501;SDS011;29631;49.168;9.848;2023-04-03T10:10:35;1.90;;;1.80;;
40501;SDS011;29631;49.168;9.848;2023-04-03T10:13:12;1.67;;;1.45;;
40501;SDS011;29631;49.168;9.848;2023-04-03T10:15:49;1.38;;;1.30;;
40501;SDS011;29631;49.168;9.848;2023-04-03T10:21:24;1.95;;;1.40;;
40501;SDS011;29631;49.168;9.848;2023-04-03T10:26:59;1.08;;;1.02;;
40501;SDS011;29631;49.168;9.848;2023-04-03T10:32:52;1.10;;;1.10;;
40501;SDS011;29631;49.168;9.848;2023-04-03T10:38:48;2.40;;;2.10;;
40501;SDS011;29631;49.168;9.848;2023-04-03T10:41:12;2.30;;;1.60;;
40501;SDS011;29631;49.168;9.848;2023-04-03T10:46:47;2.17;;;1.63;;
40501;SDS011;29631;49.168;9.848;2023-04-03T10:54:51;2.08;;;1.50;;
40501;SDS011;29631;49.168;9.848;2023-04-03T10:57:47;1.50;;;1.33;;
40501;SDS011;29631;49.168;9.848;2023-04-03T11:00:21;1.60;;;1.50;;
40501;SDS011;29631;49.168;9.848;2023-04-03T11:03:17;1.38;;;1.27;;
40501;SDS011;29631;49.168;9.848;2023-04-03T11:05:56;1.17;;;1.10;;
40501;SDS011;29631;49.168;9.848;2023-04-03T11:11:17;3.25;;;1.52;;
40501;SDS011;29631;49.168;9.848;2023-04-03T11:14:10;1.40;;;1.30;;
40501;SDS011;29631;49.168;9.848;2023-04-03T11:17:19;1.60;;;1.25;;
40501;SDS011;29631;49.168;9.848;2023-04-03T11:20:14;1.65;;;1.55;;
40501;SDS011;29631;49.168;9.848;2023-04-03T11:25:59;1.70;;;1.55;;
40501;SDS011;29631;49.168;9.848;2023-04-03T11:28:37;1.60;;;1.50;;
40501;SDS011;29631;49.168;9.848;2023-04-03T11:31:10;1.65;;;1.60;;
40501;SDS011;29631;49.168;9.848;2023-04-03T11:36:53;1.20;;;1.10;;
40501;SDS011;29631;49.168;9.848;2023-04-03T11:39:34;1.83;;;1.50;;
40501;SDS011;29631;49.168;9.848;2023-04-03T11:42:16;1.42;;;1.27;;
40501;SDS011;29631;49.168;9.848;2023-04-03T11:44:51;1.73;;;1.25;;
40501;SDS011;29631;49.168;9.848;2023-04-03T11:48:01;1.88;;;1.13;;
40501;SDS011;29631;49.168;9.848;2023-04-03T11:50:48;1.60;;;1.50;;
40501;SDS011;29631;49.168;9.848;2023-04-03T11:55:42;1.50;;;1.40;;
40501;SDS011;29631;49.168;9.848;2023-04-03T11:58:15;1.55;;;1.50;;
40501;SDS011;29631;49.168;9.848;2023-04-03T12:16:05;1.40;;;1.30;;
40501;SDS011;29631;49.168;9.848;2023-04-03T12:21:19;1.77;;;1.20;;
40501;SDS011;29631;49.168;9.848;2023-04-03T12:46:21;1.50;;;1.40;;
40501;SDS011;29631;49.168;9.848;2023-04-03T12:48:49;1.75;;;1.20;;
40501;SDS011;29631;49.168;9.848;2023-04-03T12:51:20;1.35;;;1.20;;
40501;SDS011;29631;49.168;9.848;2023-04-03T12:54:27;1.50;;;1.40;;
40501;SDS011;29631;49.168;9.848;2023-04-03T12:57:13;1.20;;;1.20;;
40501;SDS011;29631;49.168;9.848;2023-04-03T12:59:49;1.60;;;1.50;;
40501;SDS011;29631;49.168;9.848;2023-04-03T13:02:28;1.40;;;1.38;;
40501;SDS011;29631;49.168;9.848;2023-04-03T13:04:59;1.55;;;1.45;;
40501;SDS011;29631;49.168;9.848;2023-04-03T13:07:37;1.30;;;1.20;;
40501;SDS011;29631;49.168;9.848;2023-04-03T13:12:35;1.60;;;1.50;;
40501;SDS011;29631;49.168;9.848;2023-04-03T13:15:13;1.33;;;1.23;;
40501;SDS011;29631;49.168;9.848;2023-04-03T13:17:44;1.48;;;1.38;;
40501;SDS011;29631;49.168;9.848;2023-04-03T13:20:11;1.60;;;1.50;;
40501;SDS011;29631;49.168;9.848;2023-04-03T13:22:50;1.88;;;1.55;;
40501;SDS011;29631;49.168;9.848;2023-04-03T13:25:23;1.58;;;1.48;;
40501;SDS011;29631;49.168;9.848;2023-04-03T13:27:52;1.50;;;1.40;;
40501;SDS011;29631;49.168;9.848;2023-04-03T13:30:27;2.40;;;1.50;;
40501;SDS011;29631;49.168;9.848;2023-04-03T13:33:02;1.65;;;1.50;;
40501;SDS011;29631;49.168;9.848;2023-04-03T13:35:57;1.40;;;1.30;;
40501;SDS011;29631;49.168;9.848;2023-04-03T13:39:06;1.55;;;1.30;;
40501;SDS011;29631;49.168;9.848;2023-04-03T13:41:36;1.83;;;1.73;;
40501;SDS011;29631;49.168;9.848;2023-04-03T13:50:01;1.25;;;1.20;;
40501;SDS011;29631;49.168;9.848;2023-04-03T13:53:00;1.60;;;1.50;;
40501;SDS011;29631;49.168;9.848;2023-04-03T13:55:36;1.67;;;1.58;;
40501;SDS011;29631;49.168;9.848;2023-04-03T13:58:25;1.55;;;1.45;;
40501;SDS011;29631;49.168;9.848;2023-04-03T14:03:47;1.40;;;1.40;;
40501;SDS011;29631;49.168;9.848;2023-04-03T14:06:21;1.50;;;1.40;;
40501;SDS011;29631;49.168;9.848;2023-04-03T14:08:47;2.33;;;1.25;;
40501;SDS011;29631;49.168;9.848;2023-04-03T14:13:47;1.63;;;1.52;;
40501;SDS011;29631;49.168;9.848;2023-04-03T14:16:23;1.55;;;1.45;;
40501;SDS011;29631;49.168;9.848;2023-04-03T14:18:55;1.83;;;1.73;;
40501;SDS011;29631;49.168;9.848;2023-04-03T14:21:21;1.50;;;1.40;;
40501;SDS011;29631;49.168;9.848;2023-04-03T14:23:48;1.75;;;1.65;;
40501;SDS011;29631;49.168;9.848;2023-04-03T14:26:15;3.90;;;1.77;;
40501;SDS011;29631;49.168;9.848;2023-04-03T14:28:49;2.00;;;1.90;;
40501;SDS011;29631;49.168;9.848;2023-04-03T14:31:18;1.75;;;1.65;;
40501;SDS011;29631;49.168;9.848;2023-04-03T14:33:45;1.77;;;1.67;;
40501;SDS011;29631;49.168;9.848;2023-04-03T14:36:17;1.55;;;1.48;;
40501;SDS011;29631;49.168;9.848;2023-04-03T14:38:46;2.30;;;2.17;;
40501;SDS011;29631;49.168;9.848;2023-04-03T14:41:15;5.00;;;3.10;;
40501;SDS011;29631;49.168;9.848;2023-04-03T14:43:44;2.72;;;2.25;;
40501;SDS011;29631;49.168;9.848;2023-04-03T14:46:18;4.95;;;1.90;;
40501;SDS011;29631;49.168;9.848;2023-04-03T14:48:47;2.22;;;2.05;;
40501;SDS011;29631;49.168;9.848;2023-04-03T14:51:14;2.10;;;2.00;;
40501;SDS011;29631;49.168;9.848;2023-04-03T14:53:41;1.88;;;1.77;;
40501;SDS011;29631;49.168;9.848;2023-04-03T14:56:14;2.00;;;1.90;;
40501;SDS011;29631;49.168;9.848;2023-04-03T14:58:51;1.60;;;1.55;;
40501;SDS011;29631;49.168;9.848;2023-04-03T15:01:27;1.92;;;1.80;;
40501;SDS011;29631;49.168;9.848;2023-04-03T15:03:53;1.58;;;1.48;;
40501;SDS011;29631;49.168;9.848;2023-04-03T15:06:19;1.75;;;1.63;;
40501;SDS011;29631;49.168;9.848;2023-04-03T15:08:46;1.35;;;1.35;;
40501;SDS011;29631;49.168;9.848;2023-04-03T15:11:13;1.70;;;1.42;;
40501;SDS011;29631;49.168;9.848;2023-04-03T15:13:40;1.63;;;1.52;;
40501;SDS011;29631;49.168;9.848;2023-04-03T15:16:10;1.42;;;1.40;;
40501;SDS011;29631;49.168;9.848;2023-04-03T15:18:44;1.52;;;1.52;;
40501;SDS011;29631;49.168;9.848;2023-04-03T15:21:11;2.22;;;1.52;;
40501;SDS011;29631;49.168;9.848;2023-04-03T15:23:37;1.60;;;1.50;;
40501;SDS011;29631;49.168;9.848;2023-04-03T15:26:02;1.90;;;1.40;;
40501;SDS011;29631;49.168;9.848;2023-04-03T15:28:33;1.70;;;1.60;;
40501;SDS011;29631;49.168;9.848;2023-04-03T15:31:02;1.77;;;1.65;;
40501;SDS011;29631;49.168;9.848;2023-04-03T15:33:29;1.92;;;1.83;;
40501;SDS011;29631;49.168;9.848;2023-04-03T15:35:55;1.67;;;1.58;;
40501;SDS011;29631;49.168;9.848;2023-04-03T15:38:21;1.65;;;1.55;;
40501;SDS011;29631;49.168;9.848;2023-04-03T15:40:47;2.05;;;1.90;;
40501;SDS011;29631;49.168;9.848;2023-04-03T15:43:13;1.70;;;1.60;;
40501;SDS011;29631;49.168;9.848;2023-04-03T15:45:40;1.40;;;1.30;;
40501;SDS011;29631;49.168;9.848;2023-04-03T15:48:08;4.35;;;1.77;;
40501;SDS011;29631;49.168;9.848;2023-04-03T15:50:34;1.98;;;1.42;;
40501;SDS011;29631;49.168;9.848;2023-04-03T15:53:00;1.65;;;1.55;;
40501;SDS011;29631;49.168;9.848;2023-04-03T15:55:29;1.70;;;1.60;;
40501;SDS011;29631;49.168;9.848;2023-04-03T15:57:57;1.20;;;1.10;;
40501;SDS011;29631;49.168;9.848;2023-04-03T16:00:24;1.65;;;1.60;;
40501;SDS011;29631;49.168;9.848;2023-04-03T16:02:52;1.60;;;1.50;;
40501;SDS011;29631;49.168;9.848;2023-04-03T16:05:23;1.65;;;1.55;;
40501;SDS011;29631;49.168;9.848;2023-04-03T16:07:49;1.80;;;1.60;;
40501;SDS011;29631;49.168;9.848;2023-04-03T16:10:17;1.73;;;1.63;;
40501;SDS011;29631;49.168;9.848;2023-04-03T16:12:43;1.77;;;1.65;;
40501;SDS011;29631;49.168;9.848;2023-04-03T16:15:09;1.70;;;1.60;;
40501;SDS011;29631;49.168;9.848;2023-04-03T16:17:37;1.70;;;1.60;;
40501;SDS011;29631;49.168;9.848;2023-04-03T16:20:06;1.90;;;1.80;;
40501;SDS011;29631;49.168;9.848;2023-04-03T16:22:33;1.80;;;1.70;;
40501;SDS011;29631;49.168;9.848;2023-04-03T16:25:00;1.60;;;1.60;;
40501;SDS011;29631;49.168;9.848;2023-04-03T16:27:26;1.55;;;1.50;;
40501;SDS011;29631;49.168;9.848;2023-04-03T16:29:54;2.25;;;2.05;;
40501;SDS011;29631;49.168;9.848;2023-04-03T16:32:20;2.25;;;2.05;;
40501;SDS011;29631;49.168;9.848;2023-04-03T16:34:47;1.50;;;1.40;;
40501;SDS011;29631;49.168;9.848;2023-04-03T16:37:13;2.53;;;1.45;;
40501;SDS011;29631;49.168;9.848;2023-04-03T16:39:40;1.35;;;1.35;;
40501;SDS011;29631;49.168;9.848;2023-04-03T16:42:06;1.70;;;1.65;;
40501;SDS011;29631;49.168;9.848;2023-04-03T16:44:34;1.40;;;1.30;;
40501;SDS011;29631;49.168;9.848;2023-04-03T16:47:00;3.92;;;1.98;;
40501;SDS011;29631;49.168;9.848;2023-04-03T16:49:26;1.75;;;1.45;;
40501;SDS011;29631;49.168;9.848;2023-04-03T16:51:57;1.80;;;1.70;;
40501;SDS011;29631;49.168;9.848;2023-04-03T16:54:23;2.80;;;1.60;;
40501;SDS011;29631;49.168;9.848;2023-04-03T16:56:49;1.90;;;1.80;;
40501;SDS011;29631;49.168;9.848;2023-04-03T16:59:15;2.40;;;2.15;;
40501;SDS011;29631;49.168;9.848;2023-04-03T17:01:41;2.17;;;2.08;;
40501;SDS011;29631;49.168;9.848;2023-04-03T17:04:07;2.45;;;2.15;;